Time;durP1;ratioP1;P1;durP2;ratioP2;P2;SDS_P1;SDS_P2;PMS_P1;PMS_P2;Temp;Humidity;BMP_temperature;BMP_pressure;BME280_temperature;BME280_humidity;BME280_pressure;Samples;Min_cycle;Max_cycle;Signal;HPM_P1;HPM_P2
2023/09/21 00:01:03;;;;;;;5.95;2.78;;;17.70;99.90;;;;;;5057962;28;20519;-56
2023/09/21 00:03:30;;;;;;;5.43;2.40;;;17.70;99.90;;;;;;5062200;28;20071;-56
2023/09/21 00:05:56;;;;;;;6.03;3.28;;;17.70;99.90;;;;;;5062508;28;20047;-57
2023/09/21 00:08:26;;;;;;;8.57;3.10;;;17.70;99.90;;;;;;5038157;28;20148;-57
2023/09/21 00:10:54;;;;;;;4.20;2.55;;;17.70;99.90;;;;;;5061024;28;20066;-57
2023/09/21 00:13:26;;;;;;;4.97;2.30;;;17.70;99.90;;;;;;5059977;28;20045;-56
2023/09/21 00:16:01;;;;;;;5.03;2.55;;;17.70;99.90;;;;;;5064845;28;20063;-57
2023/09/21 00:18:29;;;;;;;8.70;2.80;;;17.70;99.90;;;;;;5048587;28;20036;-57
2023/09/21 00:20:55;;;;;;;7.20;2.40;;;17.70;99.90;;;;;;5064957;28;20056;-57
2023/09/21 00:23:25;;;;;;;4.10;2.42;;;17.70;99.90;;;;;;5065870;28;20052;-55
2023/09/21 00:25:58;;;;;;;7.47;2.53;;;17.70;99.90;;;;;;5063468;28;20056;-57
2023/09/21 00:28:30;;;;;;;3.88;2.58;;;17.70;99.90;;;;;;5059380;28;20052;-56
2023/09/21 00:30:57;;;;;;;5.55;2.30;;;17.70;99.90;;;;;;5058189;28;20045;-57
2023/09/21 00:33:28;;;;;;;4.03;2.20;;;17.70;99.90;;;;;;5058864;28;20056;-57
2023/09/21 00:35:55;;;;;;;4.68;2.22;;;17.70;99.90;;;;;;5041567;28;20093;-57
2023/09/21 00:38:21;;;;;;;6.10;2.55;;;17.70;99.90;;;;;;5060913;28;20032;-57
2023/09/21 00:40:47;;;;;;;6.03;2.63;;;17.70;99.90;;;;;;5041059;28;20120;-56
2023/09/21 00:43:21;;;;;;;6.13;2.47;;;17.70;99.90;;;;;;5060981;28;20044;-56
2023/09/21 00:45:51;;;;;;;4.18;2.30;;;17.70;99.90;;;;;;5057590;28;20043;-55
2023/09/21 00:48:25;;;;;;;4.68;2.33;;;17.70;99.90;;;;;;5060710;28;20039;-57
2023/09/21 00:50:54;;;;;;;6.32;2.47;;;17.70;99.90;;;;;;5058988;28;20036;-58
2023/09/21 00:53:22;;;;;;;3.58;2.25;;;17.70;99.90;;;;;;5058709;28;20045;-55
2023/09/21 00:55:55;;;;;;;5.22;2.20;;;17.70;99.90;;;;;;5059287;28;20072;-57
2023/09/21 00:58:23;;;;;;;7.90;3.05;;;17.80;99.90;;;;;;5060595;28;20049;-56
2023/09/21 01:00:50;;;;;;;7.07;2.70;;;17.80;99.90;;;;;;5045578;28;20617;-57
2023/09/21 01:03:17;;;;;;;4.25;2.65;;;17.80;99.90;;;;;;5054548;28;20127;-56
2023/09/21 01:05:45;;;;;;;6.88;2.80;;;17.80;99.90;;;;;;5055924;28;20107;-56
2023/09/21 01:08:13;;;;;;;3.35;2.28;;;17.80;99.90;;;;;;5058643;28;20116;-57
2023/09/21 01:10:41;;;;;;;7.53;2.67;;;17.80;99.90;;;;;;5058682;28;20045;-57
2023/09/21 01:13:07;;;;;;;4.93;2.63;;;17.80;99.90;;;;;;5061537;28;20068;-57
2023/09/21 01:15:34;;;;;;;6.18;2.70;;;17.80;99.90;;;;;;5063583;28;20045;-57
2023/09/21 01:18:00;;;;;;;5.22;2.50;;;17.80;99.90;;;;;;5040337;28;20438;-57
2023/09/21 01:20:32;;;;;;;6.20;2.40;;;17.80;99.90;;;;;;5057199;28;20039;-57
2023/09/21 01:23:17;;;;;;;4.63;1.98;;;17.80;99.90;;;;;;5041320;28;20055;-57
2023/09/21 01:25:50;;;;;;;6.25;2.42;;;17.80;99.90;;;;;;5059620;28;20029;-57
2023/09/21 01:28:27;;;;;;;4.97;2.40;;;17.80;99.90;;;;;;5058821;28;22414;-57
2023/09/21 01:30:56;;;;;;;7.30;2.80;;;17.80;99.90;;;;;;5039192;28;20041;-55
2023/09/21 01:33:23;;;;;;;4.85;2.53;;;17.80;99.90;;;;;;5058525;28;20595;-57
2023/09/21 01:35:49;;;;;;;6.28;2.58;;;17.80;99.90;;;;;;5058114;28;20129;-58
2023/09/21 01:38:15;;;;;;;6.25;2.65;;;17.80;99.90;;;;;;5052704;28;20051;-57
2023/09/21 01:40:42;;;;;;;5.47;2.78;;;17.80;99.90;;;;;;5060191;28;20400;-57
2023/09/21 01:43:10;;;;;;;6.00;2.83;;;17.80;99.90;;;;;;5055383;28;20047;-57
2023/09/21 01:45:39;;;;;;;7.88;2.47;;;17.80;99.90;;;;;;5057296;28;20082;-57
2023/09/21 01:48:09;;;;;;;7.00;2.47;;;17.80;99.90;;;;;;5055511;28;20667;-56
2023/09/21 01:50:44;;;;;;;4.85;2.40;;;17.80;99.90;;;;;;5030614;28;20051;-56
2023/09/21 01:53:16;;;;;;;4.53;2.50;;;17.80;99.90;;;;;;5052414;28;20114;-56
2023/09/21 01:55:43;;;;;;;7.43;3.00;;;17.80;99.90;;;;;;5062596;28;20051;-57
2023/09/21 01:58:12;;;;;;;5.03;2.65;;;17.80;99.90;;;;;;5039731;28;20193;-57
2023/09/21 02:00:49;;;;;;;3.97;2.25;;;17.80;99.90;;;;;;5034889;28;20086;-57
2023/09/21 02:03:23;;;;;;;3.58;2.30;;;17.70;99.90;;;;;;5060096;28;20677;-56
2023/09/21 02:05:49;;;;;;;6.22;2.50;;;17.70;99.90;;;;;;5063570;28;20033;-55
2023/09/21 02:08:19;;;;;;;7.25;2.15;;;17.70;99.90;;;;;;5055680;28;20043;-58
2023/09/21 02:10:49;;;;;;;5.68;2.55;;;17.70;99.90;;;;;;5064107;28;20067;-58
2023/09/21 02:13:16;;;;;;;3.47;2.08;;;17.70;99.90;;;;;;5061830;28;20500;-56
2023/09/21 02:15:43;;;;;;;4.80;2.55;;;17.70;99.90;;;;;;5063459;28;20041;-57
2023/09/21 02:18:10;;;;;;;4.75;2.10;;;17.70;99.90;;;;;;5059851;28;20049;-57
2023/09/21 02:20:41;;;;;;;4.40;2.53;;;17.70;99.90;;;;;;5064964;28;20028;-57
2023/09/21 02:23:08;;;;;;;4.60;2.70;;;17.70;99.90;;;;;;5062158;28;20064;-57
2023/09/21 02:25:35;;;;;;;4.78;2.42;;;17.70;99.90;;;;;;5061614;28;20052;-57
2023/09/21 02:28:08;;;;;;;3.33;2.10;;;17.70;99.90;;;;;;5048691;28;20055;-55
2023/09/21 02:30:36;;;;;;;5.70;3.03;;;17.70;99.90;;;;;;5064307;28;20059;-56
2023/09/21 02:33:04;;;;;;;4.82;2.35;;;17.60;99.90;;;;;;5061024;28;20040;-57
2023/09/21 02:35:33;;;;;;;5.57;2.70;;;17.70;99.90;;;;;;5059774;28;20052;-57
2023/09/21 02:38:00;;;;;;;4.63;2.88;;;17.70;99.90;;;;;;5063790;28;20047;-57
2023/09/21 02:40:26;;;;;;;4.07;2.30;;;17.70;99.90;;;;;;5060989;28;20142;-57
2023/09/21 02:42:56;;;;;;;5.07;2.40;;;17.70;99.90;;;;;;5065264;28;20119;-57
2023/09/21 02:45:29;;;;;;;4.45;2.72;;;17.70;99.90;;;;;;5060441;28;20048;-56
2023/09/21 02:48:00;;;;;;;7.70;2.88;;;17.70;99.90;;;;;;5059254;28;20049;-57
2023/09/21 02:50:28;;;;;;;5.00;2.38;;;17.70;99.90;;;;;;5076176;28;20447;-58
2023/09/21 02:52:54;;;;;;;4.90;2.58;;;17.70;99.90;;;;;;5064456;28;20040;-57
2023/09/21 02:55:21;;;;;;;5.15;2.67;;;17.70;99.90;;;;;;5056847;28;20873;-57
2023/09/21 02:57:55;;;;;;;3.63;2.40;;;17.70;99.90;;;;;;5061412;28;20403;-57
2023/09/21 03:00:34;;;;;;;6.35;3.08;;;17.70;99.90;;;;;;5044168;28;20118;-57
2023/09/21 03:03:03;;;;;;;7.68;2.40;;;17.70;99.90;;;;;;5061894;28;20067;-57
2023/09/21 03:05:28;;;;;;;4.32;2.22;;;17.70;99.90;;;;;;5053537;28;20114;-57
2023/09/21 03:07:55;;;;;;;3.45;2.25;;;17.70;99.90;;;;;;5042264;28;20434;-57
2023/09/21 03:10:25;;;;;;;5.32;2.42;;;17.70;99.90;;;;;;5056008;28;20094;-56
2023/09/21 03:12:52;;;;;;;3.58;2.40;;;17.70;99.90;;;;;;5059906;28;20049;-56
2023/09/21 03:15:22;;;;;;;7.93;2.35;;;17.70;99.90;;;;;;5061947;28;20053;-56
2023/09/21 03:17:52;;;;;;;5.20;2.28;;;17.70;99.90;;;;;;5061671;28;20041;-56
2023/09/21 03:20:29;;;;;;;5.90;2.10;;;17.70;99.90;;;;;;5061092;28;20040;-55
2023/09/21 03:22:57;;;;;;;3.95;2.60;;;17.80;99.90;;;;;;5041079;28;20140;-56
2023/09/21 03:25:32;;;;;;;4.97;2.58;;;17.80;99.90;;;;;;5044766;28;20048;-56
2023/09/21 03:28:00;;;;;;;4.50;2.03;;;17.80;99.90;;;;;;5062923;28;20052;-56
2023/09/21 03:30:27;;;;;;;3.50;2.10;;;17.80;99.90;;;;;;5055346;28;20195;-56
2023/09/21 03:32:53;;;;;;;4.88;2.47;;;17.80;99.90;;;;;;5058303;28;20037;-56
2023/09/21 03:35:20;;;;;;;4.00;2.15;;;17.80;99.90;;;;;;5058049;28;20056;-55
2023/09/21 03:37:50;;;;;;;5.43;2.00;;;17.80;99.90;;;;;;5056426;28;20048;-56
2023/09/21 03:40:17;;;;;;;4.18;2.28;;;17.80;99.90;;;;;;5044947;28;20118;-56
2023/09/21 03:42:44;;;;;;;5.00;2.83;;;17.90;99.90;;;;;;5063231;28;20515;-55
2023/09/21 03:45:14;;;;;;;5.05;2.35;;;17.80;99.90;;;;;;5057666;28;20051;-56
2023/09/21 03:47:40;;;;;;;4.93;2.30;;;17.90;99.90;;;;;;5060801;28;20036;-56
2023/09/21 03:50:11;;;;;;;7.88;2.17;;;17.90;99.90;;;;;;5065406;28;20067;-56
2023/09/21 03:52:37;;;;;;;4.50;2.30;;;17.90;99.90;;;;;;5063632;28;20407;-57
2023/09/21 03:55:04;;;;;;;5.35;2.00;;;17.90;99.90;;;;;;5066303;28;20514;-56
2023/09/21 03:57:30;;;;;;;3.80;2.05;;;17.90;99.90;;;;;;5066569;28;20076;-56
2023/09/21 03:59:57;;;;;;;3.55;1.90;;;18.00;99.90;;;;;;5062395;28;20498;-57
2023/09/21 04:02:24;;;;;;;7.05;2.53;;;18.00;99.90;;;;;;5043513;28;20051;-57
2023/09/21 04:04:51;;;;;;;6.35;2.40;;;18.00;99.90;;;;;;5058217;28;20407;-57
2023/09/21 04:07:19;;;;;;;5.07;2.33;;;18.00;99.90;;;;;;5044639;28;20576;-56
2023/09/21 04:09:45;;;;;;;4.75;2.40;;;18.00;99.90;;;;;;5044463;28;20059;-57
2023/09/21 04:12:11;;;;;;;5.50;2.35;;;18.00;99.90;;;;;;5045850;28;20531;-57
2023/09/21 04:14:37;;;;;;;6.95;2.67;;;18.10;99.90;;;;;;5045052;28;20041;-57
2023/09/21 04:17:03;;;;;;;6.03;2.38;;;18.10;99.90;;;;;;5025705;28;20040;-57
2023/09/21 04:19:29;;;;;;;4.97;2.22;;;18.00;99.90;;;;;;5058774;28;20067;-57
2023/09/21 04:21:55;;;;;;;5.10;2.40;;;18.10;99.90;;;;;;5062359;28;20121;-56
2023/09/21 04:24:21;;;;;;;4.40;2.22;;;18.10;99.90;;;;;;5059358;28;20078;-56
2023/09/21 04:26:46;;;;;;;3.08;1.88;;;18.10;99.90;;;;;;5057701;28;20186;-57
2023/09/21 04:29:15;;;;;;;5.03;2.55;;;18.00;99.90;;;;;;5025825;28;20049;-57
2023/09/21 04:31:41;;;;;;;5.95;2.50;;;18.00;99.90;;;;;;5059582;28;20048;-57
2023/09/21 04:34:07;;;;;;;5.70;2.30;;;18.00;99.90;;;;;;5062989;28;20079;-57
2023/09/21 04:36:33;;;;;;;3.80;2.22;;;18.00;99.90;;;;;;5045061;28;20063;-56
2023/09/21 04:38:59;;;;;;;5.00;2.33;;;18.00;99.90;;;;;;5062714;28;20052;-57
2023/09/21 04:41:27;;;;;;;4.45;2.20;;;18.00;99.90;;;;;;5064443;28;20122;-57
2023/09/21 04:43:54;;;;;;;4.97;2.50;;;17.90;99.90;;;;;;5045077;28;20124;-57
2023/09/21 04:46:20;;;;;;;3.63;1.90;;;17.90;99.90;;;;;;5056448;28;20044;-57
2023/09/21 04:48:46;;;;;;;5.95;2.03;;;17.90;99.90;;;;;;5055907;28;20055;-57
2023/09/21 04:51:14;;;;;;;6.53;2.50;;;17.80;99.90;;;;;;5059365;28;20036;-57
2023/09/21 04:53:40;;;;;;;5.60;2.47;;;17.90;99.90;;;;;;5063035;28;20101;-57
2023/09/21 04:56:05;;;;;;;5.40;2.30;;;17.80;99.90;;;;;;5046377;28;20032;-57
2023/09/21 04:58:31;;;;;;;3.15;2.17;;;17.80;99.90;;;;;;5057450;28;20513;-57
2023/09/21 05:00:57;;;;;;;3.95;2.42;;;17.80;99.90;;;;;;5062976;28;20043;-57
2023/09/21 05:03:22;;;;;;;5.68;2.50;;;17.80;99.90;;;;;;5058552;28;20128;-57
2023/09/21 05:05:49;;;;;;;4.40;2.00;;;17.80;99.90;;;;;;5056732;28;20055;-57
2023/09/21 05:08:14;;;;;;;3.80;2.20;;;17.70;99.90;;;;;;5053073;28;20037;-57
2023/09/21 05:10:40;;;;;;;5.82;2.45;;;17.70;99.90;;;;;;5058907;28;20039;-57
2023/09/21 05:13:06;;;;;;;4.28;2.17;;;17.70;99.90;;;;;;5041554;28;20033;-57
2023/09/21 05:15:32;;;;;;;5.68;3.00;;;17.70;99.90;;;;;;5058442;28;20715;-57
2023/09/21 05:17:58;;;;;;;7.00;2.40;;;17.70;99.90;;;;;;5056124;28;20657;-57
2023/09/21 05:20:24;;;;;;;4.63;2.83;;;17.70;99.90;;;;;;5062765;28;20040;-57
2023/09/21 05:22:51;;;;;;;5.65;3.28;;;17.70;99.90;;;;;;5063430;28;20101;-56
2023/09/21 05:25:17;;;;;;;5.75;3.53;;;17.80;99.90;;;;;;5039030;28;20136;-57
2023/09/21 05:27:43;;;;;;;4.55;2.50;;;17.70;99.90;;;;;;5063580;28;20682;-57
2023/09/21 05:30:10;;;;;;;4.53;2.53;;;17.80;99.90;;;;;;5057775;28;20097;-57
2023/09/21 05:32:36;;;;;;;4.78;2.60;;;17.70;99.90;;;;;;5078899;28;20040;-57
2023/09/21 05:35:03;;;;;;;6.35;2.65;;;17.80;99.90;;;;;;5041485;28;20048;-57
2023/09/21 05:37:29;;;;;;;4.05;2.50;;;17.80;99.90;;;;;;5061724;28;20101;-56
2023/09/21 05:39:55;;;;;;;4.70;2.33;;;17.70;99.90;;;;;;5042103;28;20044;-56
2023/09/21 05:42:23;;;;;;;4.72;2.40;;;17.80;99.90;;;;;;5047169;28;20072;-57
2023/09/21 05:44:49;;;;;;;3.55;2.30;;;17.70;99.90;;;;;;5059615;28;20131;-56
2023/09/21 05:47:15;;;;;;;5.00;2.53;;;17.80;99.90;;;;;;5042443;28;20050;-57
2023/09/21 05:49:43;;;;;;;5.78;2.42;;;17.80;99.90;;;;;;5062433;28;20040;-57
2023/09/21 05:52:12;;;;;;;4.53;2.42;;;17.80;99.90;;;;;;5062950;28;20059;-57
2023/09/21 05:54:40;;;;;;;4.32;2.60;;;17.80;99.90;;;;;;5064134;28;20040;-57
2023/09/21 05:57:05;;;;;;;3.22;2.25;;;17.70;99.90;;;;;;5043604;28;20040;-57
2023/09/21 05:59:31;;;;;;;4.93;2.80;;;17.70;99.90;;;;;;5058203;28;20082;-57
2023/09/21 06:01:58;;;;;;;3.83;2.50;;;17.70;99.90;;;;;;5050422;28;20029;-57
2023/09/21 06:04:24;;;;;;;6.25;3.03;;;17.70;99.90;;;;;;5050628;28;20497;-57
2023/09/21 06:06:54;;;;;;;5.90;2.45;;;17.60;99.90;;;;;;5065232;28;20487;-57
2023/09/21 06:09:20;;;;;;;7.15;2.53;;;17.60;99.90;;;;;;5071620;28;20036;-57
2023/09/21 06:11:46;;;;;;;3.35;2.38;;;17.50;99.90;;;;;;5063951;28;20587;-57
2023/09/21 06:14:12;;;;;;;6.40;2.92;;;17.50;99.90;;;;;;5048466;28;20033;-57
2023/09/21 06:16:38;;;;;;;3.55;2.33;;;17.50;99.90;;;;;;5046644;28;20044;-57
2023/09/21 06:19:04;;;;;;;6.07;2.67;;;17.40;99.90;;;;;;5047695;28;20033;-57
2023/09/21 06:21:30;;;;;;;5.72;3.00;;;17.40;99.90;;;;;;5061466;28;20032;-57
2023/09/21 06:23:56;;;;;;;5.70;2.67;;;17.30;99.90;;;;;;5055938;28;20399;-57
2023/09/21 06:26:22;;;;;;;6.75;3.00;;;17.30;99.90;;;;;;5048018;28;20040;-57
2023/09/21 06:28:49;;;;;;;6.72;2.80;;;17.30;99.90;;;;;;5061028;28;20055;-57
2023/09/21 06:31:16;;;;;;;5.35;3.38;;;17.30;99.90;;;;;;5042327;28;20051;-57
2023/09/21 06:33:42;;;;;;;6.32;3.13;;;17.30;99.90;;;;;;5068642;28;20504;-57
2023/09/21 06:36:20;;;;;;;4.82;2.67;;;17.30;99.90;;;;;;5065677;28;20095;-57
2023/09/21 06:38:47;;;;;;;6.22;2.90;;;17.30;99.90;;;;;;5066928;28;20044;-57
2023/09/21 06:41:13;;;;;;;4.72;2.60;;;17.30;99.90;;;;;;5041320;28;20048;-57
2023/09/21 06:43:42;;;;;;;5.38;2.70;;;17.30;99.90;;;;;;5048208;28;20044;-57
2023/09/21 06:46:09;;;;;;;4.72;3.30;;;17.30;99.90;;;;;;5066876;28;20120;-57
2023/09/21 06:48:35;;;;;;;8.18;3.45;;;17.30;99.90;;;;;;5064181;28;20048;-57
2023/09/21 06:51:01;;;;;;;6.47;2.55;;;17.30;99.90;;;;;;5061077;28;20075;-56
2023/09/21 06:53:29;;;;;;;4.68;2.70;;;17.30;99.90;;;;;;5058274;28;20686;-57
2023/09/21 06:55:55;;;;;;;4.63;2.95;;;17.30;99.90;;;;;;5061561;28;20131;-57
2023/09/21 06:58:21;;;;;;;4.78;2.72;;;17.30;99.90;;;;;;5058946;28;20072;-57
2023/09/21 07:00:47;;;;;;;6.72;3.28;;;17.30;99.90;;;;;;5055262;28;20140;-57
2023/09/21 07:03:13;;;;;;;5.57;3.45;;;17.30;99.90;;;;;;5063958;28;20499;-57
2023/09/21 07:05:43;;;;;;;5.45;2.97;;;17.40;99.90;;;;;;5044595;28;20049;-57
2023/09/21 07:08:13;;;;;;;6.00;2.75;;;17.40;99.90;;;;;;5061470;28;20870;-57
2023/09/21 07:10:39;;;;;;;5.75;2.65;;;17.40;99.90;;;;;;5061173;28;20053;-55
2023/09/21 07:13:06;;;;;;;4.55;2.70;;;17.40;99.90;;;;;;5062667;28;20081;-54
2023/09/21 07:15:33;;;;;;;4.80;3.10;;;17.40;99.90;;;;;;5055647;28;20123;-56
2023/09/21 07:17:59;;;;;;;6.05;3.25;;;17.40;99.90;;;;;;5056135;28;20122;-57
2023/09/21 07:20:26;;;;;;;5.35;2.75;;;17.40;99.90;;;;;;5049366;28;20048;-56
2023/09/21 07:22:53;;;;;;;7.20;3.30;;;17.40;99.90;;;;;;5058692;28;20058;-57
2023/09/21 07:25:19;;;;;;;5.05;2.00;;;17.30;99.90;;;;;;5062213;28;20583;-57
2023/09/21 07:27:46;;;;;;;2.22;1.23;;;17.10;99.90;;;;;;5044910;28;20052;-57
2023/09/21 07:30:13;;;;;;;2.40;1.30;;;16.70;99.90;;;;;;5061663;28;20054;-56
2023/09/21 07:32:39;;;;;;;2.35;1.40;;;16.30;99.90;;;;;;5055445;28;20117;-57
2023/09/21 07:35:09;;;;;;;2.70;1.27;;;16.10;99.90;;;;;;5062166;28;20415;-56
2023/09/21 07:37:35;;;;;;;2.08;1.13;;;16.10;99.90;;;;;;5046625;28;20487;-56
2023/09/21 07:40:06;;;;;;;1.75;1.10;;;15.90;99.90;;;;;;5078468;28;20047;-56
2023/09/21 07:42:34;;;;;;;2.08;1.05;;;15.80;99.90;;;;;;5055662;28;20046;-57
2023/09/21 07:45:00;;;;;;;2.05;0.80;;;15.70;99.90;;;;;;5061357;28;20041;-56
2023/09/21 07:47:26;;;;;;;1.77;0.98;;;15.70;99.90;;;;;;5046700;28;20048;-57
2023/09/21 07:49:55;;;;;;;7.10;1.13;;;15.60;99.90;;;;;;5048260;28;20678;-57
2023/09/21 07:52:23;;;;;;;1.63;1.02;;;15.50;99.90;;;;;;5056482;28;20711;-56
2023/09/21 07:54:50;;;;;;;3.50;1.10;;;15.50;99.90;;;;;;5041960;28;20045;-55
2023/09/21 07:57:16;;;;;;;1.95;0.90;;;15.50;99.90;;;;;;5062334;28;20480;-55
2023/09/21 07:59:43;;;;;;;3.72;0.80;;;15.50;99.90;;;;;;5043738;28;20036;-57
2023/09/21 08:02:09;;;;;;;2.00;1.13;;;15.50;99.90;;;;;;5063874;28;20058;-56
2023/09/21 08:04:38;;;;;;;2.45;1.10;;;15.40;99.90;;;;;;5064090;28;20045;-57
2023/09/21 08:07:07;;;;;;;2.33;1.08;;;15.40;99.90;;;;;;5062950;28;20138;-57
2023/09/21 08:09:33;;;;;;;3.35;1.10;;;15.40;99.90;;;;;;5060715;28;20056;-57
2023/09/21 08:12:00;;;;;;;2.13;1.10;;;15.40;99.90;;;;;;5080699;28;20611;-56
2023/09/21 08:14:26;;;;;;;3.42;0.90;;;15.40;99.90;;;;;;5062004;28;20106;-57
2023/09/21 08:16:55;;;;;;;2.13;1.20;;;15.50;99.90;;;;;;5063161;28;20047;-56
2023/09/21 08:19:21;;;;;;;2.60;1.17;;;15.60;99.90;;;;;;5058993;28;20083;-57
2023/09/21 08:21:48;;;;;;;1.73;0.93;;;15.60;99.90;;;;;;5062365;28;20051;-56
2023/09/21 08:24:13;;;;;;;2.78;1.27;;;15.70;99.90;;;;;;5060857;28;20036;-56
2023/09/21 08:26:40;;;;;;;2.80;1.70;;;15.70;99.90;;;;;;5044321;28;20979;-57
2023/09/21 08:29:06;;;;;;;3.95;1.50;;;15.70;99.90;;;;;;5060641;28;20051;-57
2023/09/21 08:31:33;;;;;;;2.47;1.20;;;15.70;99.90;;;;;;5039644;28;20480;-57
2023/09/21 08:33:59;;;;;;;3.10;1.38;;;15.70;99.90;;;;;;5043760;28;20045;-57
2023/09/21 08:36:25;;;;;;;2.70;1.40;;;15.70;99.90;;;;;;5062108;28;20047;-56
2023/09/21 08:38:53;;;;;;;2.95;1.50;;;15.80;99.90;;;;;;5063668;28;20047;-56
2023/09/21 08:41:19;;;;;;;2.03;1.15;;;15.80;99.90;;;;;;5047183;28;20052;-57
2023/09/21 08:43:45;;;;;;;2.38;1.20;;;15.80;99.90;;;;;;5047811;28;20116;-56
2023/09/21 08:46:12;;;;;;;3.42;1.67;;;15.90;99.90;;;;;;5063600;28;20055;-56
2023/09/21 08:48:39;;;;;;;2.88;1.60;;;15.90;99.90;;;;;;5050528;28;20602;-57
2023/09/21 08:51:11;;;;;;;2.83;1.70;;;15.90;99.90;;;;;;5059101;28;20045;-56
2023/09/21 08:53:39;;;;;;;2.97;1.45;;;15.90;99.90;;;;;;5043378;28;20044;-57
2023/09/21 08:56:07;;;;;;;2.97;1.50;;;16.00;99.90;;;;;;5060456;28;20087;-57
2023/09/21 08:58:40;;;;;;;2.05;0.98;;;16.00;99.90;;;;;;5060273;28;20510;-56
2023/09/21 09:01:07;;;;;;;3.45;1.30;;;16.10;99.90;;;;;;5040256;28;20049;-57
2023/09/21 09:03:33;;;;;;;2.20;1.10;;;16.10;99.90;;;;;;5062163;28;20040;-57
2023/09/21 09:05:59;;;;;;;2.67;1.00;;;16.10;99.90;;;;;;5063265;28;20052;-57
2023/09/21 09:08:26;;;;;;;2.55;1.20;;;16.20;99.90;;;;;;5057128;28;20041;-57
2023/09/21 09:10:53;;;;;;;2.65;1.10;;;16.20;99.90;;;;;;5058575;28;20076;-57
2023/09/21 09:13:40;;;;;;;2.28;1.00;;;16.30;99.90;;;;;;5062164;28;20037;-57
2023/09/21 09:16:08;;;;;;;3.17;1.35;;;16.30;99.90;;;;;;5043757;28;20040;-57
2023/09/21 09:18:35;;;;;;;3.35;1.42;;;16.30;99.90;;;;;;5062455;28;20043;-56
2023/09/21 09:21:00;;;;;;;4.00;1.50;;;16.30;99.90;;;;;;5063921;28;20415;-55
2023/09/21 09:23:26;;;;;;;2.65;1.40;;;16.30;99.90;;;;;;5056536;28;20033;-57
2023/09/21 09:25:54;;;;;;;2.15;0.95;;;16.40;99.90;;;;;;5057292;28;20040;-57
2023/09/21 09:28:24;;;;;;;2.38;0.93;;;16.40;99.90;;;;;;5058737;28;20467;-57
2023/09/21 09:30:56;;;;;;;2.25;1.02;;;16.40;99.90;;;;;;5055174;28;20115;-56
2023/09/21 09:33:25;;;;;;;2.55;1.00;;;16.40;99.90;;;;;;5057760;28;20047;-57
2023/09/21 09:35:51;;;;;;;1.60;0.98;;;16.40;99.90;;;;;;5053869;28;20047;-57
2023/09/21 09:38:17;;;;;;;3.10;1.05;;;16.50;99.90;;;;;;5055777;28;20028;-57
2023/09/21 09:40:44;;;;;;;3.17;1.02;;;16.50;99.90;;;;;;5045519;28;20044;-57
2023/09/21 09:43:14;;;;;;;3.92;1.20;;;16.50;99.90;;;;;;5047371;28;20044;-57
2023/09/21 09:45:42;;;;;;;3.65;1.20;;;16.50;99.90;;;;;;5066802;28;20032;-57
2023/09/21 09:48:12;;;;;;;3.50;1.30;;;16.50;99.90;;;;;;5046722;28;20048;-57
2023/09/21 09:50:41;;;;;;;2.10;1.05;;;16.50;99.90;;;;;;5062032;28;20514;-57
2023/09/21 09:53:13;;;;;;;2.83;0.95;;;16.50;99.90;;;;;;5060829;28;20563;-57
2023/09/21 09:55:42;;;;;;;2.53;1.10;;;16.50;99.90;;;;;;5062878;28;20643;-56
2023/09/21 09:58:08;;;;;;;2.13;1.23;;;16.50;99.90;;;;;;5046905;28;20079;-57
2023/09/21 10:00:40;;;;;;;1.63;1.00;;;16.50;99.90;;;;;;5057162;28;20040;-56
2023/09/21 10:03:11;;;;;;;2.05;1.23;;;16.50;99.90;;;;;;5041855;28;20044;-57
2023/09/21 10:05:37;;;;;;;2.83;1.35;;;16.50;99.90;;;;;;5062383;28;20494;-56
2023/09/21 10:08:04;;;;;;;5.07;1.40;;;16.60;99.90;;;;;;5043660;28;20051;-57
2023/09/21 10:10:36;;;;;;;2.33;1.27;;;16.70;99.90;;;;;;5050735;28;20044;-57
2023/09/21 10:13:02;;;;;;;2.30;1.30;;;16.70;99.90;;;;;;5063123;28;20049;-56
2023/09/21 10:15:29;;;;;;;2.63;1.05;;;16.70;99.90;;;;;;5062362;28;20041;-55
2023/09/21 10:17:57;;;;;;;2.20;0.93;;;16.70;99.90;;;;;;5035472;28;20045;-56
2023/09/21 10:20:27;;;;;;;1.23;0.90;;;16.70;99.90;;;;;;5061646;28;20512;-57
2023/09/21 10:22:54;;;;;;;2.65;1.35;;;16.70;99.90;;;;;;5043919;28;20032;-57
2023/09/21 10:25:55;;;;;;;2.55;0.90;;;16.70;99.90;;;;;;5059731;28;20044;-58
2023/09/21 10:28:27;;;;;;;1.85;1.10;;;16.70;99.90;;;;;;5063798;28;20781;-57
2023/09/21 10:30:54;;;;;;;2.10;1.20;;;16.80;99.90;;;;;;5059915;28;20032;-57
2023/09/21 10:33:20;;;;;;;2.08;1.13;;;16.90;99.90;;;;;;5040832;28;20063;-57
2023/09/21 10:35:46;;;;;;;2.15;1.05;;;16.90;99.90;;;;;;5058503;28;20044;-57
2023/09/21 10:38:16;;;;;;;2.47;1.00;;;16.90;99.90;;;;;;5059394;28;21290;-56
2023/09/21 10:40:42;;;;;;;2.22;1.05;;;16.90;99.90;;;;;;5058318;28;20040;-57
2023/09/21 10:43:36;;;;;;;1.83;0.90;;;16.90;99.90;;;;;;5049040;28;20344;-57
2023/09/21 10:46:03;;;;;;;1.52;1.10;;;16.90;99.90;;;;;;5066090;28;20052;-56
2023/09/21 10:48:30;;;;;;;3.00;1.08;;;16.90;99.90;;;;;;5047624;28;20082;-56
2023/09/21 10:50:57;;;;;;;3.60;1.15;;;16.90;99.90;;;;;;5066824;28;20131;-57
2023/09/21 10:53:23;;;;;;;2.63;1.48;;;16.90;99.90;;;;;;5079978;22;20072;-60
2023/09/21 10:55:50;;;;;;;2.50;1.48;;;16.90;99.90;;;;;;5029677;28;20041;-59
2023/09/21 10:58:21;;;;;;;3.58;1.10;;;16.90;99.90;;;;;;5013174;28;20601;-59
2023/09/21 11:00:47;;;;;;;1.38;1.00;;;16.80;99.90;;;;;;5013593;28;20064;-60
2023/09/21 11:03:13;;;;;;;2.58;1.30;;;16.90;99.90;;;;;;5024066;28;20041;-59
2023/09/21 11:05:39;;;;;;;1.92;1.00;;;16.80;99.90;;;;;;5009174;28;20057;-60
2023/09/21 11:08:06;;;;;;;2.58;1.00;;;16.70;99.90;;;;;;5011687;28;20057;-59
2023/09/21 11:10:33;;;;;;;2.85;1.00;;;16.70;99.90;;;;;;5012932;28;20041;-59
2023/09/21 11:12:59;;;;;;;2.55;0.80;;;16.80;99.90;;;;;;4990489;28;20083;-60
2023/09/21 11:15:26;;;;;;;2.47;1.30;;;16.80;99.90;;;;;;5004484;28;20081;-59
2023/09/21 11:17:52;;;;;;;3.72;1.33;;;16.80;99.90;;;;;;5003406;28;20682;-59
2023/09/21 11:20:19;;;;;;;1.50;1.00;;;16.80;99.90;;;;;;5011107;28;20044;-60
2023/09/21 11:22:46;;;;;;;1.67;1.00;;;16.80;99.90;;;;;;5025558;28;20037;-59
2023/09/21 11:25:17;;;;;;;4.68;2.65;;;16.90;99.90;;;;;;5009940;28;20045;-60
2023/09/21 11:27:45;;;;;;;3.90;1.90;;;16.90;99.90;;;;;;4990740;28;20488;-60
2023/09/21 11:30:13;;;;;;;2.30;1.40;;;16.90;99.90;;;;;;4998453;28;20712;-59
2023/09/21 11:32:50;;;;;;;2.65;1.25;;;16.80;99.90;;;;;;5004874;28;20071;-60
2023/09/21 11:35:19;;;;;;;1.20;0.90;;;16.80;99.90;;;;;;5008063;28;20045;-60
2023/09/21 11:37:52;;;;;;;2.60;1.17;;;16.80;99.90;;;;;;5010781;28;20045;-59
2023/09/21 11:40:21;;;;;;;3.10;1.20;;;16.80;99.90;;;;;;5011679;28;20056;-60
2023/09/21 11:42:48;;;;;;;1.85;1.02;;;16.80;99.90;;;;;;4987883;28;20034;-59
2023/09/21 11:45:18;;;;;;;2.78;1.10;;;16.70;99.90;;;;;;5003747;28;20041;-59
2023/09/21 11:47:48;;;;;;;1.88;1.15;;;16.70;99.90;;;;;;5007945;28;20116;-59
2023/09/21 11:50:19;;;;;;;2.80;1.30;;;16.70;99.90;;;;;;5000719;28;20154;-58
2023/09/21 11:52:44;;;;;;;2.22;1.10;;;16.70;99.90;;;;;;5003630;28;20045;-59
2023/09/21 11:55:11;;;;;;;4.05;1.42;;;16.70;99.90;;;;;;5021219;28;20091;-59
2023/09/21 11:57:37;;;;;;;3.20;1.58;;;16.70;99.90;;;;;;5009219;28;21673;-59
2023/09/21 12:00:26;;;;;;;1.98;1.25;;;16.60;99.90;;;;;;4972701;28;20065;-59
2023/09/21 12:02:49;;;;;;;1.77;1.20;;;16.70;99.90;;;;;;5006985;28;20038;-57
2023/09/21 12:05:15;;;;;;;3.13;1.30;;;16.60;99.90;;;;;;4983349;28;20038;-59
2023/09/21 12:07:41;;;;;;;2.38;1.30;;;16.70;99.90;;;;;;5005259;28;20049;-59
2023/09/21 12:10:07;;;;;;;3.42;1.50;;;16.70;99.90;;;;;;5010513;28;20116;-60
2023/09/21 12:12:33;;;;;;;2.70;1.40;;;16.80;99.90;;;;;;5002952;28;20049;-60
2023/09/21 12:14:59;;;;;;;2.67;1.50;;;16.80;99.90;;;;;;4997741;28;20038;-59
2023/09/21 12:17:26;;;;;;;1.90;1.40;;;16.70;99.90;;;;;;4988348;28;20092;-60
2023/09/21 12:19:53;;;;;;;1.85;1.02;;;16.80;99.90;;;;;;4990502;28;20049;-60
2023/09/21 12:22:18;;;;;;;1.88;1.05;;;16.80;99.90;;;;;;5004443;28;20120;-60
2023/09/21 12:24:44;;;;;;;1.58;1.00;;;16.80;99.90;;;;;;4989677;28;20563;-60
2023/09/21 12:27:10;;;;;;;2.13;1.13;;;16.80;99.90;;;;;;4989259;28;20049;-60
2023/09/21 12:29:36;;;;;;;2.50;1.27;;;16.90;99.90;;;;;;5009973;28;20047;-60
2023/09/21 12:32:04;;;;;;;1.08;0.77;;;16.90;99.90;;;;;;5019019;28;20443;-60
2023/09/21 12:34:34;;;;;;;3.13;1.10;;;16.90;99.90;;;;;;5015897;28;20104;-60
2023/09/21 12:37:00;;;;;;;1.67;0.90;;;16.90;99.90;;;;;;5006406;28;20076;-60
2023/09/21 12:39:26;;;;;;;2.55;0.90;;;16.90;99.90;;;;;;5005258;28;20532;-60
2023/09/21 12:41:52;;;;;;;2.30;1.00;;;16.80;99.90;;;;;;4986860;28;20045;-60
2023/09/21 12:44:19;;;;;;;1.48;0.90;;;16.70;99.90;;;;;;4998513;28;20087;-60
2023/09/21 12:46:44;;;;;;;1.60;0.90;;;16.70;99.90;;;;;;5015183;28;20057;-60
2023/09/21 12:49:10;;;;;;;2.38;1.50;;;16.80;99.90;;;;;;5001524;28;20056;-61
2023/09/21 12:51:36;;;;;;;2.88;1.25;;;16.80;99.90;;;;;;4982427;28;20155;-61